Woodville, Alabama
Current Conditions -  °F | °C
As of 4:55 AM on Friday 19 Dec 2014 (Local Time) from K4A6 Reporting Station
Overcast Overcast  
Wind Chill: -1°   Ceiling: 4800
Heat Index: -1°   Visibility: 8mi
Dew Point: -2°   Wind: 0mph
Humidity: 93%   Direction: NA
Pressure: 30.21"   Gusts: NA
Location:  34.63°N, 86.27°W
Report Text: K4A6 191055Z AUTO 00000KT 8SM OVC048 M01/M02 A3021 RMK AO2
Loading
Personal Weather Stations






























Interactive Weather Map New forecast layout! Learn more

10-Day Weather Forecast

Advertisements
Track Severe Weather on mobile